sensor_id;sensor_type;location;lat;lon;timestamp;P1;durP1;ratioP1;P2;durP2;ratioP2
7031;SDS011;3557;48.880;8.328;2023-01-05T00:01:52;0.70;;;0.43;;
7031;SDS011;3557;48.880;8.328;2023-01-05T00:04:20;0.00;;;0.00;;
7031;SDS011;3557;48.880;8.328;2023-01-05T00:06:48;1.65;;;0.30;;
7031;SDS011;3557;48.880;8.328;2023-01-05T00:09:16;0.60;;;0.60;;
7031;SDS011;3557;48.880;8.328;2023-01-05T00:11:45;0.22;;;0.22;;
7031;SDS011;3557;48.880;8.328;2023-01-05T00:14:32;0.35;;;0.35;;
7031;SDS011;3557;48.880;8.328;2023-01-05T00:17:17;0.20;;;0.20;;
7031;SDS011;3557;48.880;8.328;2023-01-05T00:20:05;0.30;;;0.30;;
7031;SDS011;3557;48.880;8.328;2023-01-05T00:22:54;0.40;;;0.40;;
7031;SDS011;3557;48.880;8.328;2023-01-05T00:25:22;0.30;;;0.30;;
7031;SDS011;3557;48.880;8.328;2023-01-05T00:27:51;0.40;;;0.40;;
7031;SDS011;3557;48.880;8.328;2023-01-05T00:30:22;0.35;;;0.35;;
7031;SDS011;3557;48.880;8.328;2023-01-05T00:32:52;0.43;;;0.43;;
7031;SDS011;3557;48.880;8.328;2023-01-05T00:35:19;0.40;;;0.40;;
7031;SDS011;3557;48.880;8.328;2023-01-05T00:37:48;0.45;;;0.38;;
7031;SDS011;3557;48.880;8.328;2023-01-05T00:40:19;0.43;;;0.30;;
7031;SDS011;3557;48.880;8.328;2023-01-05T00:42:47;0.52;;;0.50;;
7031;SDS011;3557;48.880;8.328;2023-01-05T00:45:15;0.40;;;0.40;;
7031;SDS011;3557;48.880;8.328;2023-01-05T00:47:47;0.55;;;0.38;;
7031;SDS011;3557;48.880;8.328;2023-01-05T00:50:16;0.15;;;0.15;;
7031;SDS011;3557;48.880;8.328;2023-01-05T00:52:44;0.13;;;0.13;;
7031;SDS011;3557;48.880;8.328;2023-01-05T00:55:12;0.20;;;0.20;;
7031;SDS011;3557;48.880;8.328;2023-01-05T00:57:40;0.30;;;0.30;;
7031;SDS011;3557;48.880;8.328;2023-01-05T01:00:10;0.20;;;0.17;;
7031;SDS011;3557;48.880;8.328;2023-01-05T01:02:41;1.10;;;0.40;;
7031;SDS011;3557;48.880;8.328;2023-01-05T01:05:10;0.30;;;0.30;;
7031;SDS011;3557;48.880;8.328;2023-01-05T01:07:38;0.20;;;0.20;;
7031;SDS011;3557;48.880;8.328;2023-01-05T01:10:06;1.65;;;0.50;;
7031;SDS011;3557;48.880;8.328;2023-01-05T01:12:35;0.30;;;0.30;;
7031;SDS011;3557;48.880;8.328;2023-01-05T01:15:03;0.40;;;0.40;;
7031;SDS011;3557;48.880;8.328;2023-01-05T01:17:32;0.25;;;0.25;;
7031;SDS011;3557;48.880;8.328;2023-01-05T01:19:59;0.32;;;0.32;;
7031;SDS011;3557;48.880;8.328;2023-01-05T01:22:28;0.50;;;0.17;;
7031;SDS011;3557;48.880;8.328;2023-01-05T01:24:55;0.10;;;0.10;;
7031;SDS011;3557;48.880;8.328;2023-01-05T01:27:23;0.63;;;0.30;;
7031;SDS011;3557;48.880;8.328;2023-01-05T01:29:50;0.17;;;0.15;;
7031;SDS011;3557;48.880;8.328;2023-01-05T01:32:18;0.28;;;0.28;;
7031;SDS011;3557;48.880;8.328;2023-01-05T01:34:45;0.30;;;0.30;;
7031;SDS011;3557;48.880;8.328;2023-01-05T01:37:13;0.17;;;0.17;;
7031;SDS011;3557;48.880;8.328;2023-01-05T01:39:47;0.13;;;0.13;;
7031;SDS011;3557;48.880;8.328;2023-01-05T01:42:15;0.10;;;0.10;;
7031;SDS011;3557;48.880;8.328;2023-01-05T01:44:51;0.30;;;0.30;;
7031;SDS011;3557;48.880;8.328;2023-01-05T01:47:41;0.20;;;0.20;;
7031;SDS011;3557;48.880;8.328;2023-01-05T01:50:12;0.20;;;0.20;;
7031;SDS011;3557;48.880;8.328;2023-01-05T01:52:43;0.20;;;0.20;;
7031;SDS011;3557;48.880;8.328;2023-01-05T01:55:14;0.10;;;0.10;;
7031;SDS011;3557;48.880;8.328;2023-01-05T01:57:42;0.30;;;0.30;;
7031;SDS011;3557;48.880;8.328;2023-01-05T02:00:10;0.20;;;0.20;;
7031;SDS011;3557;48.880;8.328;2023-01-05T02:02:48;0.10;;;0.10;;
7031;SDS011;3557;48.880;8.328;2023-01-05T02:05:21;0.73;;;0.40;;
7031;SDS011;3557;48.880;8.328;2023-01-05T02:07:51;0.10;;;0.10;;
7031;SDS011;3557;48.880;8.328;2023-01-05T02:10:22;0.08;;;0.08;;
7031;SDS011;3557;48.880;8.328;2023-01-05T02:13:02;0.40;;;0.28;;
7031;SDS011;3557;48.880;8.328;2023-01-05T02:15:41;0.00;;;0.00;;
7031;SDS011;3557;48.880;8.328;2023-01-05T02:18:23;0.20;;;0.20;;
7031;SDS011;3557;48.880;8.328;2023-01-05T02:21:14;0.15;;;0.15;;
7031;SDS011;3557;48.880;8.328;2023-01-05T02:24:11;0.35;;;0.30;;
7031;SDS011;3557;48.880;8.328;2023-01-05T02:33:39;0.45;;;0.20;;
7031;SDS011;3557;48.880;8.328;2023-01-05T02:36:23;0.30;;;0.30;;
7031;SDS011;3557;48.880;8.328;2023-01-05T02:38:57;0.30;;;0.30;;
7031;SDS011;3557;48.880;8.328;2023-01-05T02:41:30;1.08;;;0.20;;
7031;SDS011;3557;48.880;8.328;2023-01-05T02:44:02;0.13;;;0.13;;
7031;SDS011;3557;48.880;8.328;2023-01-05T02:46:31;0.43;;;0.30;;
7031;SDS011;3557;48.880;8.328;2023-01-05T02:48:58;0.28;;;0.20;;
7031;SDS011;3557;48.880;8.328;2023-01-05T02:51:27;0.30;;;0.13;;
7031;SDS011;3557;48.880;8.328;2023-01-05T02:53:59;0.15;;;0.15;;
7031;SDS011;3557;48.880;8.328;2023-01-05T02:56:30;0.40;;;0.40;;
7031;SDS011;3557;48.880;8.328;2023-01-05T02:59:02;0.43;;;0.43;;
7031;SDS011;3557;48.880;8.328;2023-01-05T03:01:35;0.20;;;0.20;;
7031;SDS011;3557;48.880;8.328;2023-01-05T03:04:05;0.10;;;0.10;;
7031;SDS011;3557;48.880;8.328;2023-01-05T03:06:39;0.30;;;0.30;;
7031;SDS011;3557;48.880;8.328;2023-01-05T03:09:22;0.20;;;0.20;;
7031;SDS011;3557;48.880;8.328;2023-01-05T03:11:55;0.63;;;0.30;;
7031;SDS011;3557;48.880;8.328;2023-01-05T03:14:45;0.30;;;0.30;;
7031;SDS011;3557;48.880;8.328;2023-01-05T03:17:18;0.20;;;0.20;;
7031;SDS011;3557;48.880;8.328;2023-01-05T03:19:51;0.30;;;0.30;;
7031;SDS011;3557;48.880;8.328;2023-01-05T03:22:23;0.35;;;0.35;;
7031;SDS011;3557;48.880;8.328;2023-01-05T03:25:12;1.10;;;0.50;;
7031;SDS011;3557;48.880;8.328;2023-01-05T03:28:01;0.40;;;0.40;;
7031;SDS011;3557;48.880;8.328;2023-01-05T03:30:49;0.30;;;0.30;;
7031;SDS011;3557;48.880;8.328;2023-01-05T03:33:42;0.00;;;0.00;;
7031;SDS011;3557;48.880;8.328;2023-01-05T03:36:31;0.20;;;0.20;;
7031;SDS011;3557;48.880;8.328;2023-01-05T03:39:04;0.40;;;0.40;;
7031;SDS011;3557;48.880;8.328;2023-01-05T03:41:33;0.30;;;0.30;;
7031;SDS011;3557;48.880;8.328;2023-01-05T03:44:02;0.50;;;0.50;;
7031;SDS011;3557;48.880;8.328;2023-01-05T03:46:33;0.40;;;0.40;;
7031;SDS011;3557;48.880;8.328;2023-01-05T03:49:03;0.17;;;0.17;;
7031;SDS011;3557;48.880;8.328;2023-01-05T03:51:30;0.30;;;0.30;;
7031;SDS011;3557;48.880;8.328;2023-01-05T03:53:58;0.45;;;0.45;;
7031;SDS011;3557;48.880;8.328;2023-01-05T03:56:27;0.50;;;0.50;;
7031;SDS011;3557;48.880;8.328;2023-01-05T03:58:56;0.30;;;0.30;;
7031;SDS011;3557;48.880;8.328;2023-01-05T04:01:25;0.35;;;0.35;;
7031;SDS011;3557;48.880;8.328;2023-01-05T04:03:52;0.35;;;0.35;;
7031;SDS011;3557;48.880;8.328;2023-01-05T04:06:21;0.50;;;0.50;;
7031;SDS011;3557;48.880;8.328;2023-01-05T04:08:48;0.40;;;0.40;;
7031;SDS011;3557;48.880;8.328;2023-01-05T04:11:18;0.30;;;0.30;;
7031;SDS011;3557;48.880;8.328;2023-01-05T04:13:55;0.40;;;0.40;;
7031;SDS011;3557;48.880;8.328;2023-01-05T04:16:23;1.15;;;0.52;;
7031;SDS011;3557;48.880;8.328;2023-01-05T04:18:53;0.30;;;0.30;;
7031;SDS011;3557;48.880;8.328;2023-01-05T04:21:23;0.20;;;0.20;;
7031;SDS011;3557;48.880;8.328;2023-01-05T04:23:52;0.20;;;0.20;;
7031;SDS011;3557;48.880;8.328;2023-01-05T04:26:21;0.32;;;0.32;;
7031;SDS011;3557;48.880;8.328;2023-01-05T04:28:49;0.30;;;0.30;;
7031;SDS011;3557;48.880;8.328;2023-01-05T04:31:21;0.38;;;0.38;;
7031;SDS011;3557;48.880;8.328;2023-01-05T04:33:50;0.52;;;0.30;;
7031;SDS011;3557;48.880;8.328;2023-01-05T04:36:20;0.40;;;0.40;;
7031;SDS011;3557;48.880;8.328;2023-01-05T04:38:49;0.52;;;0.38;;
7031;SDS011;3557;48.880;8.328;2023-01-05T04:41:16;0.35;;;0.35;;
7031;SDS011;3557;48.880;8.328;2023-01-05T04:43:47;0.35;;;0.35;;
7031;SDS011;3557;48.880;8.328;2023-01-05T04:46:14;0.40;;;0.40;;
7031;SDS011;3557;48.880;8.328;2023-01-05T04:48:45;0.50;;;0.50;;
7031;SDS011;3557;48.880;8.328;2023-01-05T04:51:13;0.50;;;0.50;;
7031;SDS011;3557;48.880;8.328;2023-01-05T04:53:41;0.30;;;0.30;;
7031;SDS011;3557;48.880;8.328;2023-01-05T04:56:14;0.30;;;0.30;;
7031;SDS011;3557;48.880;8.328;2023-01-05T04:58:43;0.50;;;0.50;;
7031;SDS011;3557;48.880;8.328;2023-01-05T05:01:11;0.40;;;0.40;;
7031;SDS011;3557;48.880;8.328;2023-01-05T05:03:40;1.08;;;0.50;;
7031;SDS011;3557;48.880;8.328;2023-01-05T05:06:12;0.40;;;0.40;;
7031;SDS011;3557;48.880;8.328;2023-01-05T05:08:41;0.45;;;0.45;;
7031;SDS011;3557;48.880;8.328;2023-01-05T05:11:08;0.30;;;0.30;;
7031;SDS011;3557;48.880;8.328;2023-01-05T05:13:39;0.43;;;0.43;;
7031;SDS011;3557;48.880;8.328;2023-01-05T05:16:07;0.70;;;0.70;;
7031;SDS011;3557;48.880;8.328;2023-01-05T05:18:34;0.20;;;0.20;;
7031;SDS011;3557;48.880;8.328;2023-01-05T05:21:03;1.08;;;0.60;;
7031;SDS011;3557;48.880;8.328;2023-01-05T05:23:34;0.47;;;0.47;;
7031;SDS011;3557;48.880;8.328;2023-01-05T05:26:01;0.73;;;0.30;;
7031;SDS011;3557;48.880;8.328;2023-01-05T05:28:29;0.85;;;0.85;;
7031;SDS011;3557;48.880;8.328;2023-01-05T05:30:58;0.50;;;0.50;;
7031;SDS011;3557;48.880;8.328;2023-01-05T05:33:25;0.43;;;0.43;;
7031;SDS011;3557;48.880;8.328;2023-01-05T05:35:53;0.40;;;0.40;;
7031;SDS011;3557;48.880;8.328;2023-01-05T05:38:20;0.45;;;0.45;;
7031;SDS011;3557;48.880;8.328;2023-01-05T05:40:48;0.52;;;0.50;;
7031;SDS011;3557;48.880;8.328;2023-01-05T05:43:15;1.13;;;0.60;;
7031;SDS011;3557;48.880;8.328;2023-01-05T05:45:42;0.52;;;0.52;;
7031;SDS011;3557;48.880;8.328;2023-01-05T05:48:11;0.70;;;0.70;;
7031;SDS011;3557;48.880;8.328;2023-01-05T05:50:38;1.35;;;0.70;;
7031;SDS011;3557;48.880;8.328;2023-01-05T05:53:06;0.75;;;0.75;;
7031;SDS011;3557;48.880;8.328;2023-01-05T05:55:33;0.60;;;0.60;;
7031;SDS011;3557;48.880;8.328;2023-01-05T05:58:00;0.57;;;0.57;;
7031;SDS011;3557;48.880;8.328;2023-01-05T06:00:28;1.27;;;0.70;;
7031;SDS011;3557;48.880;8.328;2023-01-05T06:02:55;0.60;;;0.60;;
7031;SDS011;3557;48.880;8.328;2023-01-05T06:05:24;0.60;;;0.60;;
7031;SDS011;3557;48.880;8.328;2023-01-05T06:07:51;0.68;;;0.68;;
7031;SDS011;3557;48.880;8.328;2023-01-05T06:10:19;0.70;;;0.70;;
7031;SDS011;3557;48.880;8.328;2023-01-05T06:12:46;0.43;;;0.43;;
7031;SDS011;3557;48.880;8.328;2023-01-05T06:15:13;0.73;;;0.73;;
7031;SDS011;3557;48.880;8.328;2023-01-05T06:17:41;0.50;;;0.50;;
7031;SDS011;3557;48.880;8.328;2023-01-05T06:20:10;0.60;;;0.60;;
7031;SDS011;3557;48.880;8.328;2023-01-05T06:22:39;0.80;;;0.63;;
7031;SDS011;3557;48.880;8.328;2023-01-05T06:25:07;0.60;;;0.60;;
7031;SDS011;3557;48.880;8.328;2023-01-05T06:27:35;0.68;;;0.68;;
7031;SDS011;3557;48.880;8.328;2023-01-05T06:30:03;1.60;;;1.50;;
7031;SDS011;3557;48.880;8.328;2023-01-05T06:32:32;1.35;;;1.20;;
7031;SDS011;3557;48.880;8.328;2023-01-05T06:34:59;0.75;;;0.75;;
7031;SDS011;3557;48.880;8.328;2023-01-05T06:37:26;0.55;;;0.55;;
7031;SDS011;3557;48.880;8.328;2023-01-05T06:39:55;0.52;;;0.52;;
7031;SDS011;3557;48.880;8.328;2023-01-05T06:42:22;0.50;;;0.50;;
7031;SDS011;3557;48.880;8.328;2023-01-05T06:44:50;0.60;;;0.60;;
7031;SDS011;3557;48.880;8.328;2023-01-05T06:47:17;0.50;;;0.50;;
7031;SDS011;3557;48.880;8.328;2023-01-05T06:49:45;0.60;;;0.60;;
7031;SDS011;3557;48.880;8.328;2023-01-05T06:52:12;0.60;;;0.60;;
7031;SDS011;3557;48.880;8.328;2023-01-05T06:54:39;0.60;;;0.60;;
7031;SDS011;3557;48.880;8.328;2023-01-05T06:57:09;0.70;;;0.70;;
7031;SDS011;3557;48.880;8.328;2023-01-05T06:59:36;0.68;;;0.68;;
7031;SDS011;3557;48.880;8.328;2023-01-05T07:02:03;0.50;;;0.50;;
7031;SDS011;3557;48.880;8.328;2023-01-05T07:04:31;0.80;;;0.80;;
7031;SDS011;3557;48.880;8.328;2023-01-05T07:06:58;1.00;;;0.75;;
7031;SDS011;3557;48.880;8.328;2023-01-05T07:09:26;1.30;;;0.75;;
7031;SDS011;3557;48.880;8.328;2023-01-05T07:11:53;3.05;;;0.82;;
7031;SDS011;3557;48.880;8.328;2023-01-05T07:14:22;0.68;;;0.68;;
7031;SDS011;3557;48.880;8.328;2023-01-05T07:16:49;2.15;;;1.10;;
7031;SDS011;3557;48.880;8.328;2023-01-05T07:19:16;3.83;;;0.80;;
7031;SDS011;3557;48.880;8.328;2023-01-05T07:21:44;2.90;;;0.88;;
7031;SDS011;3557;48.880;8.328;2023-01-05T07:24:11;4.75;;;1.15;;
7031;SDS011;3557;48.880;8.328;2023-01-05T07:26:38;1.80;;;1.00;;
7031;SDS011;3557;48.880;8.328;2023-01-05T07:29:06;2.92;;;1.00;;
7031;SDS011;3557;48.880;8.328;2023-01-05T07:31:34;1.48;;;0.93;;
7031;SDS011;3557;48.880;8.328;2023-01-05T07:34:04;4.40;;;1.05;;
7031;SDS011;3557;48.880;8.328;2023-01-05T07:38:59;4.47;;;1.30;;
7031;SDS011;3557;48.880;8.328;2023-01-05T07:41:26;4.18;;;1.42;;
7031;SDS011;3557;48.880;8.328;2023-01-05T07:43:54;2.90;;;1.20;;
7031;SDS011;3557;48.880;8.328;2023-01-05T07:46:21;3.47;;;1.33;;
7031;SDS011;3557;48.880;8.328;2023-01-05T07:48:52;3.13;;;1.70;;
7031;SDS011;3557;48.880;8.328;2023-01-05T07:51:20;2.88;;;1.08;;
7031;SDS011;3557;48.880;8.328;2023-01-05T07:53:47;4.30;;;1.58;;
7031;SDS011;3557;48.880;8.328;2023-01-05T07:56:17;4.10;;;1.38;;
7031;SDS011;3557;48.880;8.328;2023-01-05T07:58:45;3.65;;;1.40;;
7031;SDS011;3557;48.880;8.328;2023-01-05T08:01:13;3.72;;;1.05;;
7031;SDS011;3557;48.880;8.328;2023-01-05T08:03:42;5.05;;;1.65;;
7031;SDS011;3557;48.880;8.328;2023-01-05T08:06:12;4.28;;;1.95;;
7031;SDS011;3557;48.880;8.328;2023-01-05T08:08:42;3.90;;;1.50;;
7031;SDS011;3557;48.880;8.328;2023-01-05T08:11:11;3.80;;;1.63;;
7031;SDS011;3557;48.880;8.328;2023-01-05T08:13:40;6.13;;;2.10;;
7031;SDS011;3557;48.880;8.328;2023-01-05T08:16:27;7.57;;;1.92;;
7031;SDS011;3557;48.880;8.328;2023-01-05T08:18:56;6.93;;;1.70;;
7031;SDS011;3557;48.880;8.328;2023-01-05T08:21:25;6.57;;;1.67;;
7031;SDS011;3557;48.880;8.328;2023-01-05T08:23:52;7.05;;;1.67;;
7031;SDS011;3557;48.880;8.328;2023-01-05T08:26:22;11.60;;;1.88;;
7031;SDS011;3557;48.880;8.328;2023-01-05T08:28:49;7.43;;;1.90;;
7031;SDS011;3557;48.880;8.328;2023-01-05T08:31:18;4.80;;;1.85;;
7031;SDS011;3557;48.880;8.328;2023-01-05T08:33:47;6.97;;;1.83;;
7031;SDS011;3557;48.880;8.328;2023-01-05T08:36:16;6.28;;;1.88;;
7031;SDS011;3557;48.880;8.328;2023-01-05T08:38:46;9.32;;;2.10;;
7031;SDS011;3557;48.880;8.328;2023-01-05T08:41:16;11.27;;;2.38;;
7031;SDS011;3557;48.880;8.328;2023-01-05T08:43:47;11.73;;;1.80;;
7031;SDS011;3557;48.880;8.328;2023-01-05T08:46:16;8.00;;;2.65;;
7031;SDS011;3557;48.880;8.328;2023-01-05T08:48:46;7.53;;;2.00;;
7031;SDS011;3557;48.880;8.328;2023-01-05T08:51:14;8.60;;;2.40;;
7031;SDS011;3557;48.880;8.328;2023-01-05T08:53:42;6.55;;;1.80;;
7031;SDS011;3557;48.880;8.328;2023-01-05T08:56:11;5.00;;;1.70;;
7031;SDS011;3557;48.880;8.328;2023-01-05T08:58:38;5.85;;;1.52;;
7031;SDS011;3557;48.880;8.328;2023-01-05T09:01:07;5.38;;;1.90;;
7031;SDS011;3557;48.880;8.328;2023-01-05T09:03:34;10.07;;;2.03;;
7031;SDS011;3557;48.880;8.328;2023-01-05T09:06:02;9.85;;;2.00;;
7031;SDS011;3557;48.880;8.328;2023-01-05T09:08:31;6.32;;;1.83;;
7031;SDS011;3557;48.880;8.328;2023-01-05T09:11:05;8.65;;;1.65;;
7031;SDS011;3557;48.880;8.328;2023-01-05T09:13:35;6.00;;;1.88;;
7031;SDS011;3557;48.880;8.328;2023-01-05T09:16:03;9.65;;;1.88;;
7031;SDS011;3557;48.880;8.328;2023-01-05T09:18:33;6.60;;;2.03;;
7031;SDS011;3557;48.880;8.328;2023-01-05T09:21:00;10.00;;;1.77;;
7031;SDS011;3557;48.880;8.328;2023-01-05T09:23:28;8.52;;;1.88;;
7031;SDS011;3557;48.880;8.328;2023-01-05T09:25:55;9.23;;;2.10;;
7031;SDS011;3557;48.880;8.328;2023-01-05T09:28:23;6.38;;;1.83;;
7031;SDS011;3557;48.880;8.328;2023-01-05T09:30:52;6.78;;;1.98;;
7031;SDS011;3557;48.880;8.328;2023-01-05T09:33:19;8.60;;;2.13;;
7031;SDS011;3557;48.880;8.328;2023-01-05T09:35:51;6.70;;;2.00;;
7031;SDS011;3557;48.880;8.328;2023-01-05T09:38:20;6.95;;;1.95;;
7031;SDS011;3557;48.880;8.328;2023-01-05T09:40:47;9.93;;;2.10;;
7031;SDS011;3557;48.880;8.328;2023-01-05T09:43:20;11.20;;;2.30;;
7031;SDS011;3557;48.880;8.328;2023-01-05T09:45:51;5.72;;;1.98;;
7031;SDS011;3557;48.880;8.328;2023-01-05T09:48:19;8.05;;;2.10;;
7031;SDS011;3557;48.880;8.328;2023-01-05T09:50:48;8.85;;;2.05;;
7031;SDS011;3557;48.880;8.328;2023-01-05T09:53:17;7.32;;;2.17;;
7031;SDS011;3557;48.880;8.328;2023-01-05T09:55:49;5.35;;;1.90;;
7031;SDS011;3557;48.880;8.328;2023-01-05T09:58:17;9.02;;;1.95;;
7031;SDS011;3557;48.880;8.328;2023-01-05T10:00:49;11.00;;;2.10;;
7031;SDS011;3557;48.880;8.328;2023-01-05T10:03:30;7.82;;;2.15;;
7031;SDS011;3557;48.880;8.328;2023-01-05T10:05:57;6.88;;;1.95;;
7031;SDS011;3557;48.880;8.328;2023-01-05T10:08:26;5.57;;;1.92;;
7031;SDS011;3557;48.880;8.328;2023-01-05T10:11:00;9.10;;;2.00;;
7031;SDS011;3557;48.880;8.328;2023-01-05T10:13:50;7.50;;;1.85;;
7031;SDS011;3557;48.880;8.328;2023-01-05T10:16:24;8.32;;;2.17;;
7031;SDS011;3557;48.880;8.328;2023-01-05T10:18:52;7.35;;;1.80;;
7031;SDS011;3557;48.880;8.328;2023-01-05T10:21:29;6.85;;;2.20;;
7031;SDS011;3557;48.880;8.328;2023-01-05T10:24:10;9.70;;;2.08;;
7031;SDS011;3557;48.880;8.328;2023-01-05T10:26:51;6.80;;;1.98;;
7031;SDS011;3557;48.880;8.328;2023-01-05T10:29:21;8.65;;;2.17;;
7031;SDS011;3557;48.880;8.328;2023-01-05T10:31:55;6.32;;;1.77;;
7031;SDS011;3557;48.880;8.328;2023-01-05T10:34:35;5.38;;;1.60;;
7031;SDS011;3557;48.880;8.328;2023-01-05T10:37:28;9.30;;;2.33;;
7031;SDS011;3557;48.880;8.328;2023-01-05T10:40:13;8.15;;;1.75;;
7031;SDS011;3557;48.880;8.328;2023-01-05T10:42:52;8.48;;;2.05;;
7031;SDS011;3557;48.880;8.328;2023-01-05T10:45:35;8.73;;;2.08;;
7031;SDS011;3557;48.880;8.328;2023-01-05T10:48:08;7.40;;;2.45;;
7031;SDS011;3557;48.880;8.328;2023-01-05T10:50:39;8.63;;;2.13;;
7031;SDS011;3557;48.880;8.328;2023-01-05T10:53:08;8.23;;;2.13;;
7031;SDS011;3557;48.880;8.328;2023-01-05T10:55:43;8.88;;;2.47;;
7031;SDS011;3557;48.880;8.328;2023-01-05T10:58:20;7.05;;;2.33;;
7031;SDS011;3557;48.880;8.328;2023-01-05T11:00:50;9.90;;;2.42;;
7031;SDS011;3557;48.880;8.328;2023-01-05T11:03:24;9.10;;;2.28;;
7031;SDS011;3557;48.880;8.328;2023-01-05T11:05:58;7.45;;;2.22;;
7031;SDS011;3557;48.880;8.328;2023-01-05T11:08:26;7.53;;;2.05;;
7031;SDS011;3557;48.880;8.328;2023-01-05T11:10:55;12.45;;;2.60;;
7031;SDS011;3557;48.880;8.328;2023-01-05T11:13:26;8.85;;;2.30;;
7031;SDS011;3557;48.880;8.328;2023-01-05T11:15:58;7.35;;;2.10;;
7031;SDS011;3557;48.880;8.328;2023-01-05T11:18:37;10.13;;;2.10;;
7031;SDS011;3557;48.880;8.328;2023-01-05T11:21:13;6.55;;;2.30;;
7031;SDS011;3557;48.880;8.328;2023-01-05T11:23:43;8.98;;;2.30;;
7031;SDS011;3557;48.880;8.328;2023-01-05T11:26:25;10.60;;;1.98;;
7031;SDS011;3557;48.880;8.328;2023-01-05T11:29:02;7.22;;;1.83;;
7031;SDS011;3557;48.880;8.328;2023-01-05T11:31:43;5.20;;;1.73;;
7031;SDS011;3557;48.880;8.328;2023-01-05T11:37:05;4.90;;;2.13;;
7031;SDS011;3557;48.880;8.328;2023-01-05T11:39:39;9.57;;;2.50;;
7031;SDS011;3557;48.880;8.328;2023-01-05T11:42:13;8.50;;;2.25;;
7031;SDS011;3557;48.880;8.328;2023-01-05T11:44:45;8.82;;;2.53;;
7031;SDS011;3557;48.880;8.328;2023-01-05T11:47:25;7.25;;;2.20;;
7031;SDS011;3557;48.880;8.328;2023-01-05T11:49:59;8.00;;;2.30;;
7031;SDS011;3557;48.880;8.328;2023-01-05T11:52:32;9.30;;;2.22;;
7031;SDS011;3557;48.880;8.328;2023-01-05T11:58:09;11.48;;;2.28;;
7031;SDS011;3557;48.880;8.328;2023-01-05T12:00:45;11.20;;;2.50;;
7031;SDS011;3557;48.880;8.328;2023-01-05T12:03:34;8.48;;;2.30;;
7031;SDS011;3557;48.880;8.328;2023-01-05T12:06:21;7.47;;;2.25;;
7031;SDS011;3557;48.880;8.328;2023-01-05T12:09:09;7.25;;;2.00;;
7031;SDS011;3557;48.880;8.328;2023-01-05T12:11:42;7.85;;;2.08;;
7031;SDS011;3557;48.880;8.328;2023-01-05T12:14:21;9.50;;;2.53;;
7031;SDS011;3557;48.880;8.328;2023-01-05T12:17:00;7.63;;;2.40;;
7031;SDS011;3557;48.880;8.328;2023-01-05T12:19:38;10.07;;;2.28;;
7031;SDS011;3557;48.880;8.328;2023-01-05T12:25:33;6.00;;;2.08;;
7031;SDS011;3557;48.880;8.328;2023-01-05T12:31:01;7.93;;;2.00;;
7031;SDS011;3557;48.880;8.328;2023-01-05T12:33:48;10.02;;;2.38;;
7031;SDS011;3557;48.880;8.328;2023-01-05T12:36:29;9.38;;;2.83;;
7031;SDS011;3557;48.880;8.328;2023-01-05T12:39:16;13.02;;;2.35;;
7031;SDS011;3557;48.880;8.328;2023-01-05T12:42:28;10.30;;;2.40;;
7031;SDS011;3557;48.880;8.328;2023-01-05T12:45:32;9.73;;;2.45;;
7031;SDS011;3557;48.880;8.328;2023-01-05T12:48:12;7.57;;;2.30;;
7031;SDS011;3557;48.880;8.328;2023-01-05T12:50:44;8.80;;;2.17;;
7031;SDS011;3557;48.880;8.328;2023-01-05T12:53:16;7.00;;;2.40;;
7031;SDS011;3557;48.880;8.328;2023-01-05T12:55:54;10.77;;;2.30;;
7031;SDS011;3557;48.880;8.328;2023-01-05T12:58:24;8.93;;;2.33;;
7031;SDS011;3557;48.880;8.328;2023-01-05T13:00:55;8.32;;;2.00;;
7031;SDS011;3557;48.880;8.328;2023-01-05T13:03:24;10.10;;;2.30;;
7031;SDS011;3557;48.880;8.328;2023-01-05T13:05:56;8.45;;;2.42;;
7031;SDS011;3557;48.880;8.328;2023-01-05T13:08:30;10.13;;;2.45;;
7031;SDS011;3557;48.880;8.328;2023-01-05T13:11:05;11.52;;;2.28;;
7031;SDS011;3557;48.880;8.328;2023-01-05T13:13:39;8.95;;;2.08;;
7031;SDS011;3557;48.880;8.328;2023-01-05T13:16:11;12.15;;;2.25;;
7031;SDS011;3557;48.880;8.328;2023-01-05T13:18:45;6.47;;;2.30;;
7031;SDS011;3557;48.880;8.328;2023-01-05T13:21:17;6.25;;;1.85;;
7031;SDS011;3557;48.880;8.328;2023-01-05T13:23:47;9.05;;;2.00;;
7031;SDS011;3557;48.880;8.328;2023-01-05T13:26:19;6.70;;;2.20;;
7031;SDS011;3557;48.880;8.328;2023-01-05T13:28:47;7.05;;;2.28;;
7031;SDS011;3557;48.880;8.328;2023-01-05T13:34:20;7.15;;;2.28;;
7031;SDS011;3557;48.880;8.328;2023-01-05T13:37:03;12.30;;;2.53;;
7031;SDS011;3557;48.880;8.328;2023-01-05T13:39:52;7.50;;;2.20;;
7031;SDS011;3557;48.880;8.328;2023-01-05T13:42:42;6.40;;;2.17;;
7031;SDS011;3557;48.880;8.328;2023-01-05T13:48:15;8.82;;;2.03;;
7031;SDS011;3557;48.880;8.328;2023-01-05T13:50:59;6.55;;;2.33;;
7031;SDS011;3557;48.880;8.328;2023-01-05T13:53:46;12.65;;;2.45;;
7031;SDS011;3557;48.880;8.328;2023-01-05T13:56:15;10.13;;;2.22;;
7031;SDS011;3557;48.880;8.328;2023-01-05T13:58:46;10.48;;;2.67;;
7031;SDS011;3557;48.880;8.328;2023-01-05T14:01:17;8.77;;;2.30;;
7031;SDS011;3557;48.880;8.328;2023-01-05T14:03:47;5.82;;;2.05;;
7031;SDS011;3557;48.880;8.328;2023-01-05T14:06:17;11.07;;;2.10;;
7031;SDS011;3557;48.880;8.328;2023-01-05T14:08:52;8.52;;;2.13;;
7031;SDS011;3557;48.880;8.328;2023-01-05T14:11:23;8.45;;;2.38;;
7031;SDS011;3557;48.880;8.328;2023-01-05T14:13:55;12.25;;;2.38;;
7031;SDS011;3557;48.880;8.328;2023-01-05T14:19:19;6.45;;;2.15;;
7031;SDS011;3557;48.880;8.328;2023-01-05T14:22:03;6.63;;;2.50;;
7031;SDS011;3557;48.880;8.328;2023-01-05T14:24:49;10.13;;;2.47;;
7031;SDS011;3557;48.880;8.328;2023-01-05T14:27:17;9.52;;;2.40;;
7031;SDS011;3557;48.880;8.328;2023-01-05T14:32:51;7.20;;;2.08;;
7031;SDS011;3557;48.880;8.328;2023-01-05T14:35:21;6.00;;;2.03;;
7031;SDS011;3557;48.880;8.328;2023-01-05T14:37:55;9.90;;;2.50;;
7031;SDS011;3557;48.880;8.328;2023-01-05T14:40:32;9.63;;;2.40;;
7031;SDS011;3557;48.880;8.328;2023-01-05T14:43:04;8.18;;;2.15;;
7031;SDS011;3557;48.880;8.328;2023-01-05T14:45:45;8.43;;;2.33;;
7031;SDS011;3557;48.880;8.328;2023-01-05T14:48:28;7.50;;;2.20;;
7031;SDS011;3557;48.880;8.328;2023-01-05T14:51:07;11.73;;;2.30;;
7031;SDS011;3557;48.880;8.328;2023-01-05T14:53:45;7.78;;;2.00;;
7031;SDS011;3557;48.880;8.328;2023-01-05T14:56:15;10.50;;;2.38;;
7031;SDS011;3557;48.880;8.328;2023-01-05T14:58:47;11.77;;;2.30;;
7031;SDS011;3557;48.880;8.328;2023-01-05T15:01:26;8.75;;;1.98;;
7031;SDS011;3557;48.880;8.328;2023-01-05T15:03:59;9.88;;;2.00;;
7031;SDS011;3557;48.880;8.328;2023-01-05T15:06:36;5.85;;;1.95;;
7031;SDS011;3557;48.880;8.328;2023-01-05T15:12:50;9.05;;;2.17;;
7031;SDS011;3557;48.880;8.328;2023-01-05T15:15:59;7.93;;;1.90;;
7031;SDS011;3557;48.880;8.328;2023-01-05T15:18:41;7.75;;;2.53;;
7031;SDS011;3557;48.880;8.328;2023-01-05T15:21:31;7.68;;;2.45;;
7031;SDS011;3557;48.880;8.328;2023-01-05T15:24:35;6.20;;;2.42;;
7031;SDS011;3557;48.880;8.328;2023-01-05T15:27:48;7.05;;;1.92;;
7031;SDS011;3557;48.880;8.328;2023-01-05T15:30:41;6.00;;;2.13;;
7031;SDS011;3557;48.880;8.328;2023-01-05T15:33:29;12.32;;;2.08;;
7031;SDS011;3557;48.880;8.328;2023-01-05T15:36:04;6.40;;;2.00;;
7031;SDS011;3557;48.880;8.328;2023-01-05T15:38:42;11.73;;;2.53;;
7031;SDS011;3557;48.880;8.328;2023-01-05T15:41:11;10.30;;;2.38;;
7031;SDS011;3557;48.880;8.328;2023-01-05T15:43:40;8.32;;;2.33;;
7031;SDS011;3557;48.880;8.328;2023-01-05T15:46:08;9.40;;;2.40;;
7031;SDS011;3557;48.880;8.328;2023-01-05T15:48:37;8.18;;;2.20;;
7031;SDS011;3557;48.880;8.328;2023-01-05T15:51:08;9.90;;;2.53;;
7031;SDS011;3557;48.880;8.328;2023-01-05T15:53:37;8.50;;;2.83;;
7031;SDS011;3557;48.880;8.328;2023-01-05T15:56:20;11.27;;;3.45;;
7031;SDS011;3557;48.880;8.328;2023-01-05T15:58:51;11.85;;;3.13;;
7031;SDS011;3557;48.880;8.328;2023-01-05T16:01:18;12.35;;;2.80;;
7031;SDS011;3557;48.880;8.328;2023-01-05T16:03:46;9.60;;;3.40;;
7031;SDS011;3557;48.880;8.328;2023-01-05T16:06:16;10.88;;;3.80;;
7031;SDS011;3557;48.880;8.328;2023-01-05T16:08:47;12.23;;;3.40;;
7031;SDS011;3557;48.880;8.328;2023-01-05T16:11:18;9.88;;;3.40;;
7031;SDS011;3557;48.880;8.328;2023-01-05T16:13:51;9.30;;;3.08;;
7031;SDS011;3557;48.880;8.328;2023-01-05T16:16:22;8.10;;;2.63;;
7031;SDS011;3557;48.880;8.328;2023-01-05T16:18:53;8.27;;;2.22;;
7031;SDS011;3557;48.880;8.328;2023-01-05T16:21:26;7.93;;;2.60;;
7031;SDS011;3557;48.880;8.328;2023-01-05T16:23:58;12.68;;;2.50;;
7031;SDS011;3557;48.880;8.328;2023-01-05T16:26:28;11.55;;;2.65;;